sensor_id;sensor_type;location;lat;lon;timestamp;P1;durP1;ratioP1;P2;durP2;ratioP2
59052;SDS011;44843;44.728;10.396;2023-07-13T00:01:11;18.30;;;4.20;;
59052;SDS011;44843;44.728;10.396;2023-07-13T00:03:38;11.35;;;3.33;;
59052;SDS011;44843;44.728;10.396;2023-07-13T00:06:06;10.20;;;3.35;;
59052;SDS011;44843;44.728;10.396;2023-07-13T00:08:32;12.70;;;3.35;;
59052;SDS011;44843;44.728;10.396;2023-07-13T00:10:59;8.52;;;3.10;;
59052;SDS011;44843;44.728;10.396;2023-07-13T00:13:29;6.57;;;2.85;;
59052;SDS011;44843;44.728;10.396;2023-07-13T00:15:56;11.25;;;2.83;;
59052;SDS011;44843;44.728;10.396;2023-07-13T00:18:22;5.00;;;2.15;;
59052;SDS011;44843;44.728;10.396;2023-07-13T00:20:48;9.13;;;2.20;;
59052;SDS011;44843;44.728;10.396;2023-07-13T00:23:13;7.75;;;2.10;;
59052;SDS011;44843;44.728;10.396;2023-07-13T00:25:39;10.05;;;2.03;;
59052;SDS011;44843;44.728;10.396;2023-07-13T00:28:05;2.60;;;1.50;;
59052;SDS011;44843;44.728;10.396;2023-07-13T00:30:31;5.45;;;1.67;;
59052;SDS011;44843;44.728;10.396;2023-07-13T00:32:56;4.78;;;1.80;;
59052;SDS011;44843;44.728;10.396;2023-07-13T00:35:22;4.45;;;2.22;;
59052;SDS011;44843;44.728;10.396;2023-07-13T00:37:48;4.18;;;1.67;;
59052;SDS011;44843;44.728;10.396;2023-07-13T00:40:17;7.40;;;1.55;;
59052;SDS011;44843;44.728;10.396;2023-07-13T00:42:43;8.00;;;1.60;;
59052;SDS011;44843;44.728;10.396;2023-07-13T00:47:36;5.28;;;1.73;;
59052;SDS011;44843;44.728;10.396;2023-07-13T00:50:02;4.13;;;1.25;;
59052;SDS011;44843;44.728;10.396;2023-07-13T00:52:30;5.32;;;1.73;;
59052;SDS011;44843;44.728;10.396;2023-07-13T00:54:56;5.57;;;1.80;;
59052;SDS011;44843;44.728;10.396;2023-07-13T00:57:22;6.05;;;1.70;;
59052;SDS011;44843;44.728;10.396;2023-07-13T00:59:49;5.38;;;1.67;;
59052;SDS011;44843;44.728;10.396;2023-07-13T01:02:19;8.15;;;2.13;;
59052;SDS011;44843;44.728;10.396;2023-07-13T01:04:46;7.53;;;1.75;;
59052;SDS011;44843;44.728;10.396;2023-07-13T01:07:12;6.28;;;1.85;;
59052;SDS011;44843;44.728;10.396;2023-07-13T01:09:38;6.78;;;1.80;;
59052;SDS011;44843;44.728;10.396;2023-07-13T01:12:03;3.13;;;1.55;;
59052;SDS011;44843;44.728;10.396;2023-07-13T01:14:29;8.98;;;3.40;;
59052;SDS011;44843;44.728;10.396;2023-07-13T01:16:55;10.40;;;2.08;;
59052;SDS011;44843;44.728;10.396;2023-07-13T01:22:05;6.33;;;2.53;;
59052;SDS011;44843;44.728;10.396;2023-07-13T01:24:36;5.30;;;2.30;;
59052;SDS011;44843;44.728;10.396;2023-07-13T01:27:03;3.40;;;1.83;;
59052;SDS011;44843;44.728;10.396;2023-07-13T01:29:31;6.47;;;2.00;;
59052;SDS011;44843;44.728;10.396;2023-07-13T01:31:57;6.47;;;1.60;;
59052;SDS011;44843;44.728;10.396;2023-07-13T01:34:23;7.07;;;1.60;;
59052;SDS011;44843;44.728;10.396;2023-07-13T01:36:48;6.22;;;1.58;;
59052;SDS011;44843;44.728;10.396;2023-07-13T01:39:13;3.97;;;1.70;;
59052;SDS011;44843;44.728;10.396;2023-07-13T01:41:40;2.95;;;1.80;;
59052;SDS011;44843;44.728;10.396;2023-07-13T01:44:06;2.92;;;1.52;;
59052;SDS011;44843;44.728;10.396;2023-07-13T01:46:31;4.40;;;1.92;;
59052;SDS011;44843;44.728;10.396;2023-07-13T01:48:56;8.55;;;2.00;;
59052;SDS011;44843;44.728;10.396;2023-07-13T01:51:22;4.35;;;1.40;;
59052;SDS011;44843;44.728;10.396;2023-07-13T01:53:47;4.18;;;1.58;;
59052;SDS011;44843;44.728;10.396;2023-07-13T01:56:12;4.63;;;2.00;;
59052;SDS011;44843;44.728;10.396;2023-07-13T01:58:38;8.32;;;2.08;;
59052;SDS011;44843;44.728;10.396;2023-07-13T02:01:03;4.25;;;1.80;;
59052;SDS011;44843;44.728;10.396;2023-07-13T02:03:29;7.45;;;1.88;;
59052;SDS011;44843;44.728;10.396;2023-07-13T02:05:54;2.60;;;1.88;;
59052;SDS011;44843;44.728;10.396;2023-07-13T02:08:19;5.05;;;1.90;;
59052;SDS011;44843;44.728;10.396;2023-07-13T02:10:45;5.60;;;1.75;;
59052;SDS011;44843;44.728;10.396;2023-07-13T02:13:10;4.05;;;1.73;;
59052;SDS011;44843;44.728;10.396;2023-07-13T02:15:38;4.15;;;1.60;;
59052;SDS011;44843;44.728;10.396;2023-07-13T02:18:05;4.78;;;1.95;;
59052;SDS011;44843;44.728;10.396;2023-07-13T02:20:31;3.70;;;1.55;;
59052;SDS011;44843;44.728;10.396;2023-07-13T02:22:56;4.75;;;1.60;;
59052;SDS011;44843;44.728;10.396;2023-07-13T02:25:22;5.47;;;1.50;;
59052;SDS011;44843;44.728;10.396;2023-07-13T02:27:47;5.03;;;1.90;;
59052;SDS011;44843;44.728;10.396;2023-07-13T02:30:13;7.05;;;2.22;;
59052;SDS011;44843;44.728;10.396;2023-07-13T02:32:39;5.32;;;2.03;;
59052;SDS011;44843;44.728;10.396;2023-07-13T02:35:04;5.80;;;1.88;;
59052;SDS011;44843;44.728;10.396;2023-07-13T02:37:30;3.72;;;1.60;;
59052;SDS011;44843;44.728;10.396;2023-07-13T02:39:55;4.85;;;1.58;;
59052;SDS011;44843;44.728;10.396;2023-07-13T02:42:21;3.25;;;1.77;;
59052;SDS011;44843;44.728;10.396;2023-07-13T02:44:46;4.13;;;1.80;;
59052;SDS011;44843;44.728;10.396;2023-07-13T02:47:12;2.90;;;1.77;;
59052;SDS011;44843;44.728;10.396;2023-07-13T02:49:38;2.60;;;1.77;;
59052;SDS011;44843;44.728;10.396;2023-07-13T02:52:03;7.82;;;2.33;;
59052;SDS011;44843;44.728;10.396;2023-07-13T02:54:29;8.50;;;2.30;;
59052;SDS011;44843;44.728;10.396;2023-07-13T02:56:55;8.30;;;2.10;;
59052;SDS011;44843;44.728;10.396;2023-07-13T02:59:20;8.10;;;2.03;;
59052;SDS011;44843;44.728;10.396;2023-07-13T03:01:46;5.00;;;1.98;;
59052;SDS011;44843;44.728;10.396;2023-07-13T03:04:11;2.63;;;2.05;;
59052;SDS011;44843;44.728;10.396;2023-07-13T03:06:37;9.85;;;2.40;;
59052;SDS011;44843;44.728;10.396;2023-07-13T03:09:02;5.90;;;2.15;;
59052;SDS011;44843;44.728;10.396;2023-07-13T03:11:29;9.18;;;3.08;;
59052;SDS011;44843;44.728;10.396;2023-07-13T03:13:54;9.20;;;2.30;;
59052;SDS011;44843;44.728;10.396;2023-07-13T03:16:20;5.70;;;2.10;;
59052;SDS011;44843;44.728;10.396;2023-07-13T03:18:46;3.85;;;2.55;;
59052;SDS011;44843;44.728;10.396;2023-07-13T03:21:12;4.28;;;2.42;;
59052;SDS011;44843;44.728;10.396;2023-07-13T03:23:37;9.05;;;2.90;;
59052;SDS011;44843;44.728;10.396;2023-07-13T03:28:36;8.98;;;2.17;;
59052;SDS011;44843;44.728;10.396;2023-07-13T03:31:06;6.57;;;2.30;;
59052;SDS011;44843;44.728;10.396;2023-07-13T03:33:34;3.97;;;1.88;;
59052;SDS011;44843;44.728;10.396;2023-07-13T03:36:00;3.83;;;1.92;;
59052;SDS011;44843;44.728;10.396;2023-07-13T03:38:26;5.60;;;2.13;;
59052;SDS011;44843;44.728;10.396;2023-07-13T03:40:52;5.63;;;2.13;;
59052;SDS011;44843;44.728;10.396;2023-07-13T03:43:18;6.20;;;2.03;;
59052;SDS011;44843;44.728;10.396;2023-07-13T03:45:45;4.32;;;1.92;;
59052;SDS011;44843;44.728;10.396;2023-07-13T03:48:11;9.75;;;2.50;;
59052;SDS011;44843;44.728;10.396;2023-07-13T03:50:36;3.15;;;1.98;;
59052;SDS011;44843;44.728;10.396;2023-07-13T03:53:01;3.40;;;1.77;;
59052;SDS011;44843;44.728;10.396;2023-07-13T03:55:27;6.25;;;2.30;;
59052;SDS011;44843;44.728;10.396;2023-07-13T03:57:54;6.10;;;1.95;;
59052;SDS011;44843;44.728;10.396;2023-07-13T04:00:24;5.60;;;2.08;;
59052;SDS011;44843;44.728;10.396;2023-07-13T04:02:49;8.27;;;2.20;;
59052;SDS011;44843;44.728;10.396;2023-07-13T04:05:15;7.60;;;1.98;;
59052;SDS011;44843;44.728;10.396;2023-07-13T04:07:41;5.07;;;2.95;;
59052;SDS011;44843;44.728;10.396;2023-07-13T04:10:06;4.20;;;2.28;;
59052;SDS011;44843;44.728;10.396;2023-07-13T04:12:32;10.02;;;2.72;;
59052;SDS011;44843;44.728;10.396;2023-07-13T04:14:58;9.48;;;2.70;;
59052;SDS011;44843;44.728;10.396;2023-07-13T04:17:23;7.53;;;2.55;;
59052;SDS011;44843;44.728;10.396;2023-07-13T04:19:48;7.18;;;2.45;;
59052;SDS011;44843;44.728;10.396;2023-07-13T04:22:14;23.50;;;4.93;;
59052;SDS011;44843;44.728;10.396;2023-07-13T04:24:39;28.48;;;4.70;;
59052;SDS011;44843;44.728;10.396;2023-07-13T04:27:05;11.82;;;2.90;;
59052;SDS011;44843;44.728;10.396;2023-07-13T04:29:31;11.90;;;2.33;;
59052;SDS011;44843;44.728;10.396;2023-07-13T04:31:57;12.18;;;2.50;;
59052;SDS011;44843;44.728;10.396;2023-07-13T04:34:22;9.05;;;2.42;;
59052;SDS011;44843;44.728;10.396;2023-07-13T04:36:49;12.68;;;2.53;;
59052;SDS011;44843;44.728;10.396;2023-07-13T04:39:14;9.38;;;2.15;;
59052;SDS011;44843;44.728;10.396;2023-07-13T04:41:40;26.42;;;4.32;;
59052;SDS011;44843;44.728;10.396;2023-07-13T04:44:05;31.98;;;4.40;;
59052;SDS011;44843;44.728;10.396;2023-07-13T04:46:31;50.90;;;5.40;;
59052;SDS011;44843;44.728;10.396;2023-07-13T04:48:56;15.13;;;3.55;;
59052;SDS011;44843;44.728;10.396;2023-07-13T04:51:23;15.85;;;3.08;;
59052;SDS011;44843;44.728;10.396;2023-07-13T04:53:48;11.55;;;2.40;;
59052;SDS011;44843;44.728;10.396;2023-07-13T04:56:13;6.82;;;2.85;;
59052;SDS011;44843;44.728;10.396;2023-07-13T04:58:39;5.47;;;2.88;;
59052;SDS011;44843;44.728;10.396;2023-07-13T05:01:05;4.93;;;3.30;;
59052;SDS011;44843;44.728;10.396;2023-07-13T05:03:31;10.18;;;3.40;;
59052;SDS011;44843;44.728;10.396;2023-07-13T05:06:07;8.00;;;3.35;;
59052;SDS011;44843;44.728;10.396;2023-07-13T05:08:37;8.07;;;4.28;;
59052;SDS011;44843;44.728;10.396;2023-07-13T05:11:03;8.43;;;3.30;;
59052;SDS011;44843;44.728;10.396;2023-07-13T05:13:29;4.53;;;2.90;;
59052;SDS011;44843;44.728;10.396;2023-07-13T05:15:59;9.07;;;2.85;;
59052;SDS011;44843;44.728;10.396;2023-07-13T05:18:26;9.05;;;2.70;;
59052;SDS011;44843;44.728;10.396;2023-07-13T05:21:02;11.25;;;3.10;;
59052;SDS011;44843;44.728;10.396;2023-07-13T05:23:29;13.13;;;2.90;;
59052;SDS011;44843;44.728;10.396;2023-07-13T05:25:56;8.85;;;3.38;;
59052;SDS011;44843;44.728;10.396;2023-07-13T05:28:21;4.30;;;2.80;;
59052;SDS011;44843;44.728;10.396;2023-07-13T05:30:48;5.75;;;2.75;;
59052;SDS011;44843;44.728;10.396;2023-07-13T05:33:14;14.05;;;2.95;;
59052;SDS011;44843;44.728;10.396;2023-07-13T05:35:39;5.13;;;3.00;;
59052;SDS011;44843;44.728;10.396;2023-07-13T05:38:05;9.93;;;2.80;;
59052;SDS011;44843;44.728;10.396;2023-07-13T05:40:31;4.53;;;2.10;;
59052;SDS011;44843;44.728;10.396;2023-07-13T05:42:56;6.47;;;2.20;;
59052;SDS011;44843;44.728;10.396;2023-07-13T05:45:22;9.90;;;2.00;;
59052;SDS011;44843;44.728;10.396;2023-07-13T05:47:47;12.35;;;2.15;;
59052;SDS011;44843;44.728;10.396;2023-07-13T05:50:13;8.95;;;2.00;;
59052;SDS011;44843;44.728;10.396;2023-07-13T05:52:38;3.53;;;2.28;;
59052;SDS011;44843;44.728;10.396;2023-07-13T05:55:03;7.07;;;2.22;;
59052;SDS011;44843;44.728;10.396;2023-07-13T05:57:30;10.35;;;2.35;;
59052;SDS011;44843;44.728;10.396;2023-07-13T05:59:55;10.45;;;2.60;;
59052;SDS011;44843;44.728;10.396;2023-07-13T06:02:21;3.20;;;1.92;;
59052;SDS011;44843;44.728;10.396;2023-07-13T06:04:46;2.58;;;2.28;;
59052;SDS011;44843;44.728;10.396;2023-07-13T06:07:11;5.78;;;2.28;;
59052;SDS011;44843;44.728;10.396;2023-07-13T06:09:37;6.68;;;2.15;;
59052;SDS011;44843;44.728;10.396;2023-07-13T06:12:03;5.32;;;2.45;;
59052;SDS011;44843;44.728;10.396;2023-07-13T06:14:29;4.82;;;1.90;;
59052;SDS011;44843;44.728;10.396;2023-07-13T06:16:54;4.30;;;2.30;;
59052;SDS011;44843;44.728;10.396;2023-07-13T06:19:20;6.50;;;1.88;;
59052;SDS011;44843;44.728;10.396;2023-07-13T06:21:45;5.43;;;2.70;;
59052;SDS011;44843;44.728;10.396;2023-07-13T06:24:11;5.03;;;1.70;;
59052;SDS011;44843;44.728;10.396;2023-07-13T06:26:36;8.38;;;2.72;;
59052;SDS011;44843;44.728;10.396;2023-07-13T06:29:01;8.90;;;2.83;;
59052;SDS011;44843;44.728;10.396;2023-07-13T06:31:27;10.48;;;2.78;;
59052;SDS011;44843;44.728;10.396;2023-07-13T06:33:52;4.30;;;2.42;;
59052;SDS011;44843;44.728;10.396;2023-07-13T06:36:17;2.65;;;2.00;;
59052;SDS011;44843;44.728;10.396;2023-07-13T06:38:43;4.80;;;2.20;;
59052;SDS011;44843;44.728;10.396;2023-07-13T06:41:08;11.63;;;3.45;;
59052;SDS011;44843;44.728;10.396;2023-07-13T06:43:34;9.43;;;2.40;;
59052;SDS011;44843;44.728;10.396;2023-07-13T06:45:59;6.03;;;2.55;;
59052;SDS011;44843;44.728;10.396;2023-07-13T06:48:25;11.00;;;3.13;;
59052;SDS011;44843;44.728;10.396;2023-07-13T06:50:51;7.28;;;2.80;;
59052;SDS011;44843;44.728;10.396;2023-07-13T06:53:18;7.80;;;2.80;;
59052;SDS011;44843;44.728;10.396;2023-07-13T06:55:44;6.40;;;3.17;;
59052;SDS011;44843;44.728;10.396;2023-07-13T06:58:10;8.20;;;3.17;;
59052;SDS011;44843;44.728;10.396;2023-07-13T07:00:36;4.80;;;2.30;;
59052;SDS011;44843;44.728;10.396;2023-07-13T07:03:02;5.55;;;2.70;;
59052;SDS011;44843;44.728;10.396;2023-07-13T07:05:27;4.28;;;2.35;;
59052;SDS011;44843;44.728;10.396;2023-07-13T07:07:53;5.80;;;2.40;;
59052;SDS011;44843;44.728;10.396;2023-07-13T07:10:20;4.80;;;2.33;;
59052;SDS011;44843;44.728;10.396;2023-07-13T07:12:46;3.88;;;2.03;;
59052;SDS011;44843;44.728;10.396;2023-07-13T07:15:12;6.65;;;2.17;;
59052;SDS011;44843;44.728;10.396;2023-07-13T07:17:38;3.45;;;2.28;;
59052;SDS011;44843;44.728;10.396;2023-07-13T07:20:04;6.70;;;2.58;;
59052;SDS011;44843;44.728;10.396;2023-07-13T07:22:30;9.48;;;2.30;;
59052;SDS011;44843;44.728;10.396;2023-07-13T07:24:56;4.35;;;1.88;;
59052;SDS011;44843;44.728;10.396;2023-07-13T07:27:22;6.43;;;2.23;;
59052;SDS011;44843;44.728;10.396;2023-07-13T07:29:48;5.60;;;2.10;;
59052;SDS011;44843;44.728;10.396;2023-07-13T07:32:14;5.97;;;2.42;;
59052;SDS011;44843;44.728;10.396;2023-07-13T07:34:39;5.78;;;2.17;;
59052;SDS011;44843;44.728;10.396;2023-07-13T07:37:04;4.57;;;2.00;;
59052;SDS011;44843;44.728;10.396;2023-07-13T07:39:30;5.22;;;2.30;;
59052;SDS011;44843;44.728;10.396;2023-07-13T07:41:56;9.90;;;2.13;;
59052;SDS011;44843;44.728;10.396;2023-07-13T07:44:22;7.95;;;2.20;;
59052;SDS011;44843;44.728;10.396;2023-07-13T07:46:47;7.45;;;2.00;;
59052;SDS011;44843;44.728;10.396;2023-07-13T07:49:13;8.55;;;2.80;;
59052;SDS011;44843;44.728;10.396;2023-07-13T07:51:39;11.55;;;3.17;;
59052;SDS011;44843;44.728;10.396;2023-07-13T07:54:04;6.00;;;2.85;;
59052;SDS011;44843;44.728;10.396;2023-07-13T07:56:30;8.55;;;2.70;;
59052;SDS011;44843;44.728;10.396;2023-07-13T07:58:56;14.13;;;4.38;;
59052;SDS011;44843;44.728;10.396;2023-07-13T08:01:22;8.98;;;3.17;;
59052;SDS011;44843;44.728;10.396;2023-07-13T08:03:47;4.25;;;3.40;;
59052;SDS011;44843;44.728;10.396;2023-07-13T08:06:13;8.57;;;3.35;;
59052;SDS011;44843;44.728;10.396;2023-07-13T08:08:38;5.80;;;3.10;;
59052;SDS011;44843;44.728;10.396;2023-07-13T08:11:07;8.35;;;3.63;;
59052;SDS011;44843;44.728;10.396;2023-07-13T08:13:33;6.70;;;3.80;;
59052;SDS011;44843;44.728;10.396;2023-07-13T08:15:59;9.10;;;3.47;;
59052;SDS011;44843;44.728;10.396;2023-07-13T08:18:25;9.60;;;2.70;;
59052;SDS011;44843;44.728;10.396;2023-07-13T08:20:50;12.45;;;3.75;;
59052;SDS011;44843;44.728;10.396;2023-07-13T08:23:16;12.02;;;4.25;;
59052;SDS011;44843;44.728;10.396;2023-07-13T08:25:42;11.75;;;3.58;;
59052;SDS011;44843;44.728;10.396;2023-07-13T08:28:08;7.82;;;4.45;;
59052;SDS011;44843;44.728;10.396;2023-07-13T08:30:33;14.55;;;4.88;;
59052;SDS011;44843;44.728;10.396;2023-07-13T08:32:59;9.63;;;4.38;;
59052;SDS011;44843;44.728;10.396;2023-07-13T08:35:24;8.82;;;4.82;;
59052;SDS011;44843;44.728;10.396;2023-07-13T08:37:51;10.85;;;4.35;;
59052;SDS011;44843;44.728;10.396;2023-07-13T08:40:16;8.82;;;4.45;;
59052;SDS011;44843;44.728;10.396;2023-07-13T08:42:45;11.95;;;4.28;;
59052;SDS011;44843;44.728;10.396;2023-07-13T08:45:24;8.43;;;4.00;;
59052;SDS011;44843;44.728;10.396;2023-07-13T08:47:57;8.50;;;4.28;;
59052;SDS011;44843;44.728;10.396;2023-07-13T08:50:35;15.52;;;4.40;;
59052;SDS011;44843;44.728;10.396;2023-07-13T08:53:22;7.78;;;4.68;;
59052;SDS011;44843;44.728;10.396;2023-07-13T08:55:55;12.80;;;4.50;;
59052;SDS011;44843;44.728;10.396;2023-07-13T08:58:23;8.98;;;4.93;;
59052;SDS011;44843;44.728;10.396;2023-07-13T09:03:23;7.43;;;4.30;;
59052;SDS011;44843;44.728;10.396;2023-07-13T09:05:56;11.38;;;4.85;;
59052;SDS011;44843;44.728;10.396;2023-07-13T09:13:44;13.85;;;5.28;;
59052;SDS011;44843;44.728;10.396;2023-07-13T09:16:40;6.05;;;4.47;;
59052;SDS011;44843;44.728;10.396;2023-07-13T09:19:07;15.65;;;6.15;;
59052;SDS011;44843;44.728;10.396;2023-07-13T09:21:41;11.02;;;5.53;;
59052;SDS011;44843;44.728;10.396;2023-07-13T09:26:59;13.02;;;5.30;;
59052;SDS011;44843;44.728;10.396;2023-07-13T09:29:29;13.95;;;5.68;;
59052;SDS011;44843;44.728;10.396;2023-07-13T09:32:01;13.02;;;5.35;;
59052;SDS011;44843;44.728;10.396;2023-07-13T09:34:28;12.85;;;5.13;;
59052;SDS011;44843;44.728;10.396;2023-07-13T09:36:55;13.00;;;5.63;;
59052;SDS011;44843;44.728;10.396;2023-07-13T09:44:50;10.27;;;4.32;;
59052;SDS011;44843;44.728;10.396;2023-07-13T09:50:04;8.57;;;4.43;;
59052;SDS011;44843;44.728;10.396;2023-07-13T09:55:23;6.68;;;4.00;;
59052;SDS011;44843;44.728;10.396;2023-07-13T09:57:55;10.07;;;4.25;;
59052;SDS011;44843;44.728;10.396;2023-07-13T10:00:22;7.47;;;3.67;;
59052;SDS011;44843;44.728;10.396;2023-07-13T10:02:59;7.82;;;3.28;;
59052;SDS011;44843;44.728;10.396;2023-07-13T10:05:55;8.40;;;3.20;;
59052;SDS011;44843;44.728;10.396;2023-07-13T10:08:30;5.90;;;3.03;;
59052;SDS011;44843;44.728;10.396;2023-07-13T10:10:58;5.32;;;2.83;;
59052;SDS011;44843;44.728;10.396;2023-07-13T10:13:28;5.25;;;3.33;;
59052;SDS011;44843;44.728;10.396;2023-07-13T10:16:04;17.10;;;4.45;;
59052;SDS011;44843;44.728;10.396;2023-07-13T10:18:34;5.20;;;3.75;;
59052;SDS011;44843;44.728;10.396;2023-07-13T10:21:12;11.30;;;4.28;;
59052;SDS011;44843;44.728;10.396;2023-07-13T10:23:43;10.13;;;4.00;;
59052;SDS011;44843;44.728;10.396;2023-07-13T10:26:15;11.32;;;4.07;;
59052;SDS011;44843;44.728;10.396;2023-07-13T10:28:47;7.90;;;4.30;;
59052;SDS011;44843;44.728;10.396;2023-07-13T10:31:17;10.10;;;4.63;;
59052;SDS011;44843;44.728;10.396;2023-07-13T10:33:44;9.70;;;4.38;;
59052;SDS011;44843;44.728;10.396;2023-07-13T10:36:22;8.20;;;4.28;;
59052;SDS011;44843;44.728;10.396;2023-07-13T10:38:50;12.10;;;4.93;;
59052;SDS011;44843;44.728;10.396;2023-07-13T10:41:19;11.07;;;4.82;;
59052;SDS011;44843;44.728;10.396;2023-07-13T10:43:48;8.77;;;4.15;;
59052;SDS011;44843;44.728;10.396;2023-07-13T10:46:17;14.27;;;4.78;;
59052;SDS011;44843;44.728;10.396;2023-07-13T10:48:49;9.25;;;4.38;;
59052;SDS011;44843;44.728;10.396;2023-07-13T10:51:17;9.32;;;4.35;;
59052;SDS011;44843;44.728;10.396;2023-07-13T10:53:46;9.65;;;4.65;;
59052;SDS011;44843;44.728;10.396;2023-07-13T10:58:47;7.13;;;4.82;;
59052;SDS011;44843;44.728;10.396;2023-07-13T11:02:21;11.20;;;4.82;;
59052;SDS011;44843;44.728;10.396;2023-07-13T11:04:24;12.38;;;4.30;;
59052;SDS011;44843;44.728;10.396;2023-07-13T11:06:53;8.90;;;4.65;;
59052;SDS011;44843;44.728;10.396;2023-07-13T11:09:34;8.40;;;4.70;;
59052;SDS011;44843;44.728;10.396;2023-07-13T11:12:09;11.27;;;4.38;;
59052;SDS011;44843;44.728;10.396;2023-07-13T11:19:54;13.55;;;4.30;;
59052;SDS011;44843;44.728;10.396;2023-07-13T11:22:45;8.40;;;3.67;;
59052;SDS011;44843;44.728;10.396;2023-07-13T11:27:52;8.57;;;4.18;;
59052;SDS011;44843;44.728;10.396;2023-07-13T11:33:22;8.45;;;5.40;;
59052;SDS011;44843;44.728;10.396;2023-07-13T11:38:55;10.00;;;5.50;;
59052;SDS011;44843;44.728;10.396;2023-07-13T11:41:29;9.00;;;4.72;;
59052;SDS011;44843;44.728;10.396;2023-07-13T11:44:06;10.18;;;4.10;;
59052;SDS011;44843;44.728;10.396;2023-07-13T11:46:43;10.75;;;4.40;;
59052;SDS011;44843;44.728;10.396;2023-07-13T11:49:11;10.68;;;4.75;;
59052;SDS011;44843;44.728;10.396;2023-07-13T11:51:41;8.15;;;4.47;;
59052;SDS011;44843;44.728;10.396;2023-07-13T11:54:10;6.32;;;3.75;;
59052;SDS011;44843;44.728;10.396;2023-07-13T11:56:49;7.43;;;4.07;;
59052;SDS011;44843;44.728;10.396;2023-07-13T11:59:15;8.48;;;3.80;;
59052;SDS011;44843;44.728;10.396;2023-07-13T12:01:44;8.98;;;3.72;;
59052;SDS011;44843;44.728;10.396;2023-07-13T12:04:21;6.03;;;4.55;;
59052;SDS011;44843;44.728;10.396;2023-07-13T12:06:54;11.88;;;5.65;;
59052;SDS011;44843;44.728;10.396;2023-07-13T12:09:21;9.68;;;5.20;;
59052;SDS011;44843;44.728;10.396;2023-07-13T12:11:50;10.50;;;4.72;;
59052;SDS011;44843;44.728;10.396;2023-07-13T12:14:16;10.48;;;4.53;;
59052;SDS011;44843;44.728;10.396;2023-07-13T12:16:43;11.82;;;4.63;;
59052;SDS011;44843;44.728;10.396;2023-07-13T12:19:21;12.68;;;4.93;;
59052;SDS011;44843;44.728;10.396;2023-07-13T12:21:49;8.43;;;4.30;;
59052;SDS011;44843;44.728;10.396;2023-07-13T12:24:18;9.52;;;4.30;;
59052;SDS011;44843;44.728;10.396;2023-07-13T12:26:50;8.43;;;3.58;;
59052;SDS011;44843;44.728;10.396;2023-07-13T12:29:20;10.10;;;3.78;;
59052;SDS011;44843;44.728;10.396;2023-07-13T12:31:47;8.85;;;3.83;;
59052;SDS011;44843;44.728;10.396;2023-07-13T12:34:21;9.05;;;3.58;;
59052;SDS011;44843;44.728;10.396;2023-07-13T12:39:32;6.47;;;3.60;;
59052;SDS011;44843;44.728;10.396;2023-07-13T12:44:58;9.98;;;3.67;;
59052;SDS011;44843;44.728;10.396;2023-07-13T12:47:24;8.27;;;3.70;;
59052;SDS011;44843;44.728;10.396;2023-07-13T12:49:53;9.10;;;4.07;;
59052;SDS011;44843;44.728;10.396;2023-07-13T12:52:29;7.80;;;3.30;;
59052;SDS011;44843;44.728;10.396;2023-07-13T12:55:10;8.57;;;3.70;;
59052;SDS011;44843;44.728;10.396;2023-07-13T12:57:42;8.93;;;3.85;;
59052;SDS011;44843;44.728;10.396;2023-07-13T13:00:21;10.38;;;3.80;;
59052;SDS011;44843;44.728;10.396;2023-07-13T13:02:56;8.27;;;3.03;;
59052;SDS011;44843;44.728;10.396;2023-07-13T13:05:25;7.68;;;3.15;;
59052;SDS011;44843;44.728;10.396;2023-07-13T13:07:51;11.15;;;3.90;;
59052;SDS011;44843;44.728;10.396;2023-07-13T13:10:17;7.18;;;3.45;;
59052;SDS011;44843;44.728;10.396;2023-07-13T13:12:43;9.65;;;4.25;;
59052;SDS011;44843;44.728;10.396;2023-07-13T13:15:09;6.70;;;2.90;;
59052;SDS011;44843;44.728;10.396;2023-07-13T13:17:36;7.18;;;3.55;;
59052;SDS011;44843;44.728;10.396;2023-07-13T13:20:05;6.90;;;3.08;;
59052;SDS011;44843;44.728;10.396;2023-07-13T13:22:43;10.00;;;3.80;;
59052;SDS011;44843;44.728;10.396;2023-07-13T13:25:12;11.63;;;4.25;;
59052;SDS011;44843;44.728;10.396;2023-07-13T13:27:42;6.53;;;2.92;;
59052;SDS011;44843;44.728;10.396;2023-07-13T13:30:12;4.57;;;3.00;;
59052;SDS011;44843;44.728;10.396;2023-07-13T13:32:41;8.32;;;4.05;;
59052;SDS011;44843;44.728;10.396;2023-07-13T13:35:14;9.00;;;3.78;;
59052;SDS011;44843;44.728;10.396;2023-07-13T13:37:40;9.45;;;3.40;;
59052;SDS011;44843;44.728;10.396;2023-07-13T13:40:16;5.65;;;3.05;;
59052;SDS011;44843;44.728;10.396;2023-07-13T13:42:45;5.95;;;3.15;;
59052;SDS011;44843;44.728;10.396;2023-07-13T13:45:10;7.63;;;3.10;;
59052;SDS011;44843;44.728;10.396;2023-07-13T13:47:42;8.20;;;3.53;;
59052;SDS011;44843;44.728;10.396;2023-07-13T13:50:30;6.78;;;3.47;;
59052;SDS011;44843;44.728;10.396;2023-07-13T13:52:54;9.70;;;3.40;;
59052;SDS011;44843;44.728;10.396;2023-07-13T13:55:20;7.55;;;3.00;;
59052;SDS011;44843;44.728;10.396;2023-07-13T13:57:47;7.70;;;3.45;;
59052;SDS011;44843;44.728;10.396;2023-07-13T14:00:13;8.88;;;3.22;;
59052;SDS011;44843;44.728;10.396;2023-07-13T14:02:42;5.10;;;3.22;;
59052;SDS011;44843;44.728;10.396;2023-07-13T14:05:13;6.00;;;3.03;;
59052;SDS011;44843;44.728;10.396;2023-07-13T14:07:40;9.68;;;3.65;;
59052;SDS011;44843;44.728;10.396;2023-07-13T14:10:13;9.40;;;3.35;;
59052;SDS011;44843;44.728;10.396;2023-07-13T14:12:47;8.07;;;3.10;;
59052;SDS011;44843;44.728;10.396;2023-07-13T14:15:37;6.93;;;3.85;;
59052;SDS011;44843;44.728;10.396;2023-07-13T14:18:01;6.97;;;3.58;;
59052;SDS011;44843;44.728;10.396;2023-07-13T14:20:27;7.43;;;3.58;;
59052;SDS011;44843;44.728;10.396;2023-07-13T14:22:53;12.00;;;3.65;;
59052;SDS011;44843;44.728;10.396;2023-07-13T14:25:20;10.68;;;3.15;;
59052;SDS011;44843;44.728;10.396;2023-07-13T14:27:46;11.70;;;3.55;;
59052;SDS011;44843;44.728;10.396;2023-07-13T14:30:17;7.97;;;3.80;;
59052;SDS011;44843;44.728;10.396;2023-07-13T14:32:45;10.80;;;4.25;;
59052;SDS011;44843;44.728;10.396;2023-07-13T14:35:12;10.65;;;3.78;;
59052;SDS011;44843;44.728;10.396;2023-07-13T14:37:39;10.73;;;4.20;;
59052;SDS011;44843;44.728;10.396;2023-07-13T14:40:12;8.38;;;3.40;;
59052;SDS011;44843;44.728;10.396;2023-07-13T14:42:39;9.82;;;3.80;;
59052;SDS011;44843;44.728;10.396;2023-07-13T14:45:05;10.02;;;3.95;;
59052;SDS011;44843;44.728;10.396;2023-07-13T14:47:31;8.35;;;4.05;;
59052;SDS011;44843;44.728;10.396;2023-07-13T14:49:56;8.80;;;4.13;;
59052;SDS011;44843;44.728;10.396;2023-07-13T14:52:22;6.05;;;3.05;;
59052;SDS011;44843;44.728;10.396;2023-07-13T14:54:49;10.50;;;3.67;;
59052;SDS011;44843;44.728;10.396;2023-07-13T14:57:18;8.63;;;3.33;;
59052;SDS011;44843;44.728;10.396;2023-07-13T14:59:45;7.00;;;3.63;;
59052;SDS011;44843;44.728;10.396;2023-07-13T15:02:19;9.93;;;4.03;;
59052;SDS011;44843;44.728;10.396;2023-07-13T15:04:52;9.52;;;5.07;;
59052;SDS011;44843;44.728;10.396;2023-07-13T15:07:18;14.18;;;5.68;;
59052;SDS011;44843;44.728;10.396;2023-07-13T15:09:45;15.55;;;4.82;;
59052;SDS011;44843;44.728;10.396;2023-07-13T15:12:12;14.82;;;4.65;;
59052;SDS011;44843;44.728;10.396;2023-07-13T15:14:38;10.10;;;3.80;;
59052;SDS011;44843;44.728;10.396;2023-07-13T15:17:03;11.05;;;3.63;;
59052;SDS011;44843;44.728;10.396;2023-07-13T15:19:30;9.98;;;3.90;;
59052;SDS011;44843;44.728;10.396;2023-07-13T15:21:56;8.95;;;4.35;;
59052;SDS011;44843;44.728;10.396;2023-07-13T15:24:25;11.40;;;4.45;;
59052;SDS011;44843;44.728;10.396;2023-07-13T15:26:51;13.90;;;5.25;;